Weather reports worldwide

Advertisment
Torino/Bric Della Croce, Italy (16061): temperature & dewpoint: 16.07.2019 02:00:00 - 22.07.2019 02:00:00 (CEST)Torino/Bric Della Croce, Italy (16061): wind speed: 16.07.2019 02:00:00 - 22.07.2019 02:00:00 (CEST)Torino/Bric Della Croce, Italy (16061): wind direction: 16.07.2019 02:00:00 - 22.07.2019 02:00:00 (CEST)Torino/Bric Della Croce, Italy (16061): visibility: 16.07.2019 02:00:00 - 22.07.2019 02:00:00 (CEST)Torino/Bric Della Croce, Italy (16061): sunshine duration: 16.07.2019 02:00:00 - 22.07.2019 02:00:00 (CEST)
Date & Time tt [°C] td [°C] ff [km/h] ff [kn] dd vv [km] sd [min]
22.07.2019 02:00:00 23,8 23,8 8 4 SSW 15 -
22.07.2019 01:00:00 23,8 23,8 8 4 SSW 12 -
22.07.2019 00:00:00 24,0 24,0 9 5 S 12 -
21.07.2019 23:00:00 24,8 24,8 8 4 NW 12 -
21.07.2019 22:00:00 25,4 24,5 9 5 SSE 20 -
21.07.2019 21:00:00 26,0 22,5 9 5 SSW 20 12
21.07.2019 20:00:00 27,2 22,4 5 3 S 30 60
21.07.2019 19:00:00 27,8 23,2 5 3 SSW 30 60
21.07.2019 18:00:00 27,2 21,9 5 3 WNW 20 -
21.07.2019 17:00:00 27,2 21,9 0 0 N 30 60
21.07.2019 16:00:00 27,0 22,6 8 4 SSW 30 60
21.07.2019 15:00:00 26,4 22,3 5 3 S 20 30
21.07.2019 14:00:00 25,6 22,1 5 3 S 30 30
21.07.2019 13:00:00 25,0 22,9 0 0 N 20 36
21.07.2019 12:00:00 25,0 22,9 5 3 NNW 20 60
21.07.2019 11:00:00 24,0 23,3 0 0 N 20 60
21.07.2019 10:00:00 23,2 22,7 0 0 N 20 60
21.07.2019 09:00:00 23,0 21,3 5 3 E 20 60
21.07.2019 08:00:00 22,0 21,2 8 4 ENE 25 0
21.07.2019 07:00:00 22,4 21,4 8 4 NE 35 -
21.07.2019 06:00:00 22,4 20,7 9 5 NNE 35 -
21.07.2019 05:00:00 22,6 20,5 0 0 N 40 -
21.07.2019 04:00:00 22,4 21,6 5 3 N 30 -
21.07.2019 03:00:00 22,8 22,3 5 3 NNW 30 -
21.07.2019 02:00:00 22,6 22,1 0 0 N 20 -
21.07.2019 01:00:00 23,6 20,5 0 0 N 40 -
21.07.2019 00:00:00 23,8 19,5 0 0 N 40 -
20.07.2019 23:00:00 23,8 19,5 5 3 ESE 40 -
20.07.2019 22:00:00 23,8 20,9 13 7 ESE 40 -
20.07.2019 21:00:00 24,6 20,1 11 6 SE 40 0
20.07.2019 20:00:00 25,6 21,3 11 6 ESE 30 0
20.07.2019 19:00:00 26,0 20,1 0 0 N 30 12
20.07.2019 18:00:00 26,0 19,9 0 0 N 30 60
20.07.2019 17:00:00 26,6 20,2 8 4 ESE 30 18
20.07.2019 16:00:00 26,6 19,7 8 4 ESE 30 12
20.07.2019 15:00:00 26,2 18,4 9 5 SE 30 60
20.07.2019 14:00:00 25,8 18,7 8 4 ESE 30 60
20.07.2019 13:00:00 25,0 19,2 8 4 SSE 20 60
20.07.2019 12:00:00 24,4 19,7 8 4 ESE 20 48
20.07.2019 11:00:00 23,2 18,7 0 0 N 20 36
20.07.2019 10:00:00 23,0 18,5 0 0 N 20 0
20.07.2019 09:00:00 22,0 16,9 0 0 N 20 30
20.07.2019 08:00:00 21,4 18,2 9 5 NNE 25 6
20.07.2019 07:00:00 22,0 17,8 4 2 NNE 25 -
20.07.2019 06:00:00 22,0 16,3 5 3 NNE 25 -
20.07.2019 05:00:00 22,0 17,6 5 3 N 30 -
20.07.2019 04:00:00 22,2 17,4 4 2 N 30 -
20.07.2019 03:00:00 22,6 19,6 0 0 N 30 -
20.07.2019 02:00:00 23,0 18,5 0 0 N 30 -
20.07.2019 01:00:00 23,0 19,4 0 0 N 30 -
20.07.2019 00:00:00 23,2 19,2 0 0 N 30 -
19.07.2019 23:00:00 23,4 20,2 9 5 ESE 25 -
19.07.2019 22:00:00 24,0 18,9 4 2 SSW 30 -
19.07.2019 21:00:00 24,8 18,3 0 0 N 30 0
19.07.2019 20:00:00 25,4 19,1 5 3 S 30 30
19.07.2019 19:00:00 25,8 18,7 8 4 S 30 30
19.07.2019 18:00:00 25,6 18,8 5 3 S 25 60
19.07.2019 17:00:00 25,4 19,5 5 3 SSE 25 48
19.07.2019 16:00:00 25,4 19,8 0 0 N 25 48
19.07.2019 15:00:00 24,8 19,9 8 4 S 25 42
19.07.2019 14:00:00 24,2 20,9 5 3 NE 15 42
19.07.2019 13:00:00 22,8 20,3 0 0 N 25 48
19.07.2019 12:00:00 23,0 20,3 0 0 N 15 60
19.07.2019 11:00:00 22,0 19,7 5 3 NE 20 60
19.07.2019 10:00:00 21,6 20,8 5 3 NNE 13 48
19.07.2019 09:00:00 20,6 20,6 8 4 NE 11 18
19.07.2019 08:00:00 20,2 20,2 11 6 NNE 12 0
19.07.2019 07:00:00 21,2 19,9 4 2 N 15 -
19.07.2019 06:00:00 21,2 19,5 5 3 N 20 -
19.07.2019 05:00:00 21,2 17,8 9 5 E 30 -
19.07.2019 04:00:00 21,4 18,4 8 4 E 30 -
19.07.2019 03:00:00 21,4 18,4 9 5 E 20 -
19.07.2019 02:00:00 22,0 19,4 11 6 E 30 -
19.07.2019 01:00:00 22,2 16,5 0 0 N 40 -
19.07.2019 00:00:00 22,2 16,5 0 0 N 50 -
18.07.2019 23:00:00 22,4 15,5 5 3 SW 50 -
18.07.2019 22:00:00 23,0 15,3 9 5 E 50 -
18.07.2019 21:00:00 23,0 17,5 13 7 ESE 50 0
18.07.2019 20:00:00 24,0 17,7 11 6 SE 40 0
18.07.2019 19:00:00 24,6 17,8 11 6 SSE 40 12
18.07.2019 18:00:00 25,0 17,7 8 4 SE 40 60
18.07.2019 17:00:00 24,8 18,0 5 3 ESE 40 60
18.07.2019 16:00:00 24,8 18,5 5 3 ENE 30 60
18.07.2019 15:00:00 24,6 18,5 11 6 ESE 30 60
18.07.2019 14:00:00 24,2 19,7 9 5 ESE 30 60
18.07.2019 13:00:00 23,2 20,5 8 4 SE 30 60
18.07.2019 12:00:00 22,4 20,5 4 2 NNE 30 60
18.07.2019 11:00:00 21,2 19,1 4 2 NW 40 60
18.07.2019 10:00:00 20,6 18,0 9 5 NE 40 60
18.07.2019 09:00:00 19,6 18,8 11 6 N 40 60
18.07.2019 08:00:00 19,2 17,4 13 7 N 30 0
18.07.2019 07:00:00 20,2 15,0 15 8 NNE 30 -
18.07.2019 06:00:00 20,6 14,9 15 8 N 30 -
18.07.2019 05:00:00 19,8 16,3 15 8 N 50 -
18.07.2019 04:00:00 20,4 15,6 11 6 N 50 -
18.07.2019 03:00:00 21,0 14,9 15 8 NNE 50 -
18.07.2019 02:00:00 21,0 17,0 16 9 N 50 -
18.07.2019 01:00:00 21,4 15,7 9 5 NNW 50 -
18.07.2019 00:00:00 22,4 14,3 8 4 NW 50 -
17.07.2019 23:00:00 22,6 13,7 0 0 N 50 -
17.07.2019 22:00:00 22,8 15,4 8 4 SE 50 -
17.07.2019 21:00:00 23,4 14,9 11 6 ESE 50 0
17.07.2019 20:00:00 24,0 14,4 11 6 SE 40 12
17.07.2019 19:00:00 25,0 14,8 9 5 ESE 40 48
17.07.2019 18:00:00 25,8 15,8 9 5 SE 40 60
17.07.2019 17:00:00 25,4 16,0 9 5 SSE 40 60
17.07.2019 16:00:00 25,2 16,1 8 4 SSE 40 60
17.07.2019 15:00:00 25,0 15,6 9 5 SSE 40 60
17.07.2019 14:00:00 24,2 16,7 8 4 S 40 60
17.07.2019 13:00:00 23,4 17,6 8 4 SE 40 60
17.07.2019 12:00:00 22,0 18,6 0 0 N 30 60
17.07.2019 11:00:00 22,0 18,6 4 2 NNE 30 60
17.07.2019 10:00:00 21,6 19,4 4 2 SE 40 60
17.07.2019 09:00:00 21,0 18,6 0 0 N 40 60
17.07.2019 08:00:00 20,2 18,5 5 3 N 50 48
17.07.2019 07:00:00 20,0 17,8 5 3 N 50 -
17.07.2019 06:00:00 20,6 16,4 0 0 N 50 -
17.07.2019 05:00:00 21,0 14,4 0 0 N 50 -
17.07.2019 04:00:00 21,0 13,9 0 0 N 50 -
17.07.2019 03:00:00 21,0 14,2 5 3 SE 50 -
17.07.2019 02:00:00 21,0 14,2 8 4 S 50 -
17.07.2019 01:00:00 21,4 14,1 8 4 S 50 -
17.07.2019 00:00:00 21,4 14,6 9 5 S 50 -
16.07.2019 23:00:00 22,0 13,9 9 5 S 50 -
16.07.2019 22:00:00 22,2 12,7 9 5 S 50 -
16.07.2019 21:00:00 24,0 13,0 8 4 S 50 0
16.07.2019 20:00:00 23,8 12,8 5 3 SSE 50 36
16.07.2019 19:00:00 24,0 12,6 0 0 N 50 60
16.07.2019 18:00:00 24,0 12,6 0 0 N 50 60
16.07.2019 17:00:00 24,0 14,1 5 3 SSE 50 60
16.07.2019 16:00:00 23,4 14,1 0 0 N 50 60
16.07.2019 15:00:00 23,0 14,3 0 0 N 50 60
16.07.2019 14:00:00 22,2 14,3 11 6 S 50 60
16.07.2019 13:00:00 21,0 13,7 8 4 S 50 60
16.07.2019 12:00:00 20,6 15,0 15 8 S 50 60
16.07.2019 11:00:00 20,0 13,2 5 3 SSW 50 60
16.07.2019 10:00:00 19,2 12,2 5 3 S 50 60
16.07.2019 09:00:00 19,0 11,1 0 0 N 50 60
16.07.2019 08:00:00 18,2 9,8 8 4 W 50 48
16.07.2019 07:00:00 18,4 11,0 9 5 SW 50 -
16.07.2019 06:00:00 18,2 9,3 13 7 WSW 50 -
16.07.2019 05:00:00 18,4 11,2 11 6 SW 50 -
16.07.2019 04:00:00 17,8 9,9 15 8 WNW 50 -
16.07.2019 03:00:00 17,8 11,1 13 7 W 50 -
16.07.2019 02:00:00 17,8 11,8 15 8 WNW 50 -

tt = temperature
td = dewpoint
ff = wind speed
dd = wind direction
vv = visibility
sd = sunshine duration

Next stations